createdAt,value
2022-08-04T00:00:35.108Z,594.4
2022-08-04T00:01:38.737Z,594.6
2022-08-04T00:02:40.925Z,594.6
2022-08-04T00:03:43.399Z,595
2022-08-04T00:04:45.873Z,594.9
2022-08-04T00:05:48.064Z,595
2022-08-04T00:06:50.562Z,594.8
2022-08-04T00:07:53.012Z,594.9
2022-08-04T00:08:57.689Z,594.8
2022-08-04T00:09:59.867Z,594.7
2022-08-04T00:11:02.333Z,595
2022-08-04T00:12:04.536Z,594.9
2022-08-04T00:13:06.707Z,594.6
2022-08-04T00:14:09.170Z,594.5
2022-08-04T00:16:15.812Z,594.7
2022-08-04T00:17:17.735Z,594.5
2022-08-04T00:18:20.209Z,594.6
2022-08-04T00:19:22.382Z,594.3
2022-08-04T00:20:24.851Z,594.8
2022-08-04T00:21:27.326Z,594.7
2022-08-04T00:22:29.521Z,594.6
2022-08-04T00:24:36.975Z,594.7
2022-08-04T00:25:38.893Z,594.6
2022-08-04T00:26:41.104Z,594.6
2022-08-04T00:27:43.583Z,594.6
2022-08-04T00:28:45.764Z,594.3
2022-08-04T00:30:57.167Z,594.7
2022-08-04T00:32:00.112Z,594.2
2022-08-04T00:33:02.579Z,594.7
2022-08-04T00:34:05.054Z,594.8
2022-08-04T00:35:07.520Z,595.1
2022-08-04T00:36:09.694Z,594.8
2022-08-04T00:37:11.603Z,595
2022-08-04T00:38:13.793Z,595.3
2022-08-04T00:39:16.913Z,595.2
2022-08-04T00:40:23.509Z,595.2
2022-08-04T00:41:25.981Z,595.3
2022-08-04T00:42:28.449Z,595.6
2022-08-04T00:43:30.934Z,595.3
2022-08-04T00:44:33.131Z,595.4
2022-08-04T00:46:40.595Z,595.5
2022-08-04T00:47:42.526Z,595.5
2022-08-04T00:48:44.742Z,595.3
2022-08-04T00:49:46.943Z,595.3
2022-08-04T00:50:49.145Z,595.5
2022-08-04T00:52:56.644Z,595.2
2022-08-04T00:53:59.112Z,595.3
2022-08-04T00:56:07.585Z,594.9
2022-08-04T00:58:14.768Z,594.5
2022-08-04T00:59:17.231Z,594.5
2022-08-04T01:00:19.433Z,594.3
2022-08-04T01:01:22.070Z,595
2022-08-04T01:02:24.592Z,594.7
2022-08-04T01:03:27.059Z,594.6
2022-08-04T01:04:29.534Z,594.6
2022-08-04T01:06:36.736Z,595
2022-08-04T01:07:38.927Z,595.1
2022-08-04T01:08:40.845Z,594.9
2022-08-04T01:09:43.305Z,595
2022-08-04T01:10:45.478Z,594.7
2022-08-04T01:12:52.952Z,594.8
2022-08-04T01:13:55.148Z,595.1
2022-08-04T01:14:57.633Z,594.9
2022-08-04T01:17:04.834Z,595
2022-08-04T01:18:11.789Z,594.9
2022-08-04T01:19:13.986Z,595
2022-08-04T01:20:16.492Z,594.8
2022-08-04T01:21:18.976Z,594.8
2022-08-04T01:22:21.173Z,594.8
2022-08-04T01:23:23.364Z,595.1
2022-08-04T01:24:26.477Z,594.7
2022-08-04T01:28:44.983Z,594.7
2022-08-04T01:30:52.259Z,594.7
2022-08-04T01:31:54.458Z,594.9
2022-08-04T01:32:56.085Z,595
2022-08-04T01:35:03.589Z,595
2022-08-04T01:36:06.187Z,594.9
2022-08-04T01:37:08.464Z,595.3
2022-08-04T01:39:16.040Z,595.2
2022-08-04T01:40:18.300Z,595.1
2022-08-04T01:43:30.763Z,595.2
2022-08-04T01:44:32.967Z,595.2
2022-08-04T01:45:35.168Z,595.3
2022-08-04T01:46:37.359Z,595.3
2022-08-04T01:47:39.844Z,595.4
2022-08-04T01:48:42.571Z,595.3
2022-08-04T01:49:45.047Z,595
2022-08-04T01:51:52.512Z,595.4
2022-08-04T01:52:54.712Z,595.5
2022-08-04T01:53:56.914Z,595.7
2022-08-04T01:54:59.118Z,595.4
2022-08-04T01:56:01.315Z,595
2022-08-04T01:58:08.501Z,595.1
2022-08-04T01:59:10.990Z,595
2022-08-04T02:00:13.471Z,594.7
2022-08-04T02:01:15.984Z,595.2
2022-08-04T02:02:20.903Z,595.3
2022-08-04T02:04:28.844Z,594.7
2022-08-04T02:06:36.319Z,595
2022-08-04T02:07:38.500Z,594.9
2022-08-04T02:08:40.975Z,595
2022-08-04T02:10:48.443Z,594.8
2022-08-04T02:11:50.912Z,594.5
2022-08-04T02:12:53.107Z,594.4
2022-08-04T02:13:55.036Z,594.3
2022-08-04T02:14:57.517Z,594.8
2022-08-04T02:15:59.711Z,594.4
2022-08-04T02:17:02.192Z,594.7
2022-08-04T02:18:04.398Z,595
2022-08-04T02:20:13.050Z,595
2022-08-04T02:21:15.542Z,594.5
2022-08-04T02:22:17.739Z,594.7
2022-08-04T02:23:19.925Z,594.8
2022-08-04T02:24:22.131Z,594.5
2022-08-04T02:25:24.612Z,594.6
2022-08-04T02:26:27.086Z,594.5
2022-08-04T02:28:34.560Z,594.3
2022-08-04T02:29:37.024Z,594.7
2022-08-04T02:30:39.202Z,594.7
2022-08-04T02:31:41.386Z,594.8
2022-08-04T02:32:43.595Z,594.6
2022-08-04T02:33:46.066Z,594.8
2022-08-04T02:34:48.285Z,594.6
2022-08-04T02:35:51.236Z,595
2022-08-04T02:36:53.709Z,595
2022-08-04T02:37:56.186Z,594.7
2022-08-04T02:38:58.720Z,594.8
2022-08-04T02:40:01.232Z,595.2
2022-08-04T02:41:03.432Z,594.8
2022-08-04T02:42:05.636Z,595
2022-08-04T02:43:07.850Z,594.9
2022-08-04T02:44:10.024Z,595.4
2022-08-04T02:45:12.524Z,595.7
2022-08-04T02:47:21.062Z,595.5
2022-08-04T02:50:33.135Z,595.6
2022-08-04T02:51:35.329Z,595.4
2022-08-04T02:52:37.236Z,595.8
2022-08-04T02:53:39.431Z,596
2022-08-04T02:54:41.350Z,595.5
2022-08-04T02:57:53.931Z,595.7
2022-08-04T02:58:56.153Z,596
2022-08-04T02:59:58.634Z,595.8
2022-08-04T03:01:01.467Z,596
2022-08-04T03:02:03.974Z,596.2
2022-08-04T03:03:08.213Z,595.8
2022-08-04T03:04:10.421Z,595.9
2022-08-04T03:05:12.631Z,596.1
2022-08-04T03:06:14.849Z,596.2
2022-08-04T03:07:17.652Z,596.1
2022-08-04T03:08:20.135Z,596.2
2022-08-04T03:09:22.327Z,596.5
2022-08-04T03:10:25.343Z,596.7
2022-08-04T03:11:32.015Z,596.5
2022-08-04T03:12:34.206Z,596.5
2022-08-04T03:13:36.681Z,596.5
2022-08-04T03:14:39.143Z,596.1
2022-08-04T03:15:41.616Z,596.6
2022-08-04T03:16:44.084Z,596.2
2022-08-04T03:18:51.281Z,596.5
2022-08-04T03:19:53.486Z,596.6
2022-08-04T03:20:55.952Z,596.5
2022-08-04T03:21:58.144Z,596.9
2022-08-04T03:24:05.615Z,596.6
2022-08-04T03:25:08.088Z,596.3
2022-08-04T03:26:09.710Z,596.2
2022-08-04T03:27:11.913Z,596.3
2022-08-04T03:28:14.383Z,596.6
2022-08-04T03:30:21.300Z,596.1
2022-08-04T03:31:23.223Z,596.2
2022-08-04T03:32:25.125Z,596.2
2022-08-04T03:33:27.047Z,596.3
2022-08-04T03:34:29.511Z,596.1
2022-08-04T03:35:31.132Z,596.5
2022-08-04T03:36:33.743Z,596.4
2022-08-04T03:37:35.664Z,595.9
2022-08-04T03:38:37.860Z,596.6
2022-08-04T03:39:40.783Z,596.2
2022-08-04T03:40:43.290Z,596.3
2022-08-04T03:42:50.487Z,596.5
2022-08-04T03:44:57.413Z,596.4
2022-08-04T03:45:59.882Z,596.6
2022-08-04T03:47:02.085Z,596.4
2022-08-04T03:48:04.284Z,596.4
2022-08-04T03:49:06.489Z,596
2022-08-04T03:50:08.707Z,596.3
2022-08-04T03:52:16.104Z,596
2022-08-04T03:53:18.299Z,596.3
2022-08-04T03:54:20.221Z,596
2022-08-04T03:55:22.144Z,595.6
2022-08-04T03:56:24.339Z,595.9
2022-08-04T03:57:26.807Z,595.9
2022-08-04T03:59:34.284Z,595.8
2022-08-04T04:00:36.767Z,595.7
2022-08-04T04:02:43.973Z,595.6
2022-08-04T04:03:46.448Z,596
2022-08-04T04:04:48.782Z,596.1
2022-08-04T04:06:55.828Z,595.8
2022-08-04T04:10:11.416Z,596.1
2022-08-04T04:11:13.295Z,595.9
2022-08-04T04:12:15.532Z,595.5
2022-08-04T04:13:17.719Z,595.5
2022-08-04T04:14:19.921Z,595.5
2022-08-04T04:16:28.711Z,595.2
2022-08-04T04:17:31.185Z,595.3
2022-08-04T04:18:33.384Z,595.4
2022-08-04T04:19:35.306Z,595.4
2022-08-04T04:20:37.774Z,595.2
2022-08-04T04:21:40.257Z,595.2
2022-08-04T04:22:42.728Z,595.1
2022-08-04T04:23:46.287Z,595
2022-08-04T04:24:48.760Z,595.1
2022-08-04T04:25:50.680Z,594.7
2022-08-04T04:26:52.900Z,595
2022-08-04T04:30:06.562Z,594.9
2022-08-04T04:31:08.457Z,594.8
2022-08-04T04:32:10.671Z,594.7
2022-08-04T04:33:14.160Z,594.5
2022-08-04T04:34:16.081Z,595.1
2022-08-04T04:35:18.283Z,595.1
2022-08-04T04:36:20.751Z,595.1
2022-08-04T04:37:24.471Z,595.2
2022-08-04T04:38:26.683Z,594.9
2022-08-04T04:39:28.692Z,595
2022-08-04T04:40:30.918Z,594.7
2022-08-04T04:41:32.553Z,594.7
2022-08-04T04:42:34.460Z,594.7
2022-08-04T04:44:41.691Z,594.9
2022-08-04T04:45:43.323Z,594.7
2022-08-04T04:46:45.527Z,594.8
2022-08-04T04:48:52.718Z,594.3
2022-08-04T04:49:54.923Z,594.2
2022-08-04T04:50:57.396Z,594.1
2022-08-04T04:51:59.594Z,594.3
2022-08-04T04:53:02.065Z,594.3
2022-08-04T04:54:04.244Z,593.9
2022-08-04T04:55:06.741Z,593.9
2022-08-04T04:56:08.937Z,594.3
2022-08-04T04:57:11.419Z,594.1
2022-08-04T04:58:13.612Z,593.7
2022-08-04T04:59:16.109Z,594
2022-08-04T05:00:18.583Z,593.8
2022-08-04T05:01:20.531Z,594
2022-08-04T05:02:22.727Z,594
2022-08-04T05:03:24.920Z,593.9
2022-08-04T05:04:27.115Z,593.8
2022-08-04T05:05:29.047Z,594.1
2022-08-04T05:06:31.536Z,593.8
2022-08-04T05:07:33.732Z,593.9
2022-08-04T05:09:40.937Z,594
2022-08-04T05:10:43.410Z,594.1
2022-08-04T05:11:45.886Z,593.9
2022-08-04T05:14:57.800Z,593.8
2022-08-04T05:16:00.265Z,594
2022-08-04T05:17:02.474Z,594.3
2022-08-04T05:18:04.667Z,593.8
2022-08-04T05:19:06.864Z,594
2022-08-04T05:20:10.634Z,594.4
2022-08-04T05:21:14.640Z,593.9
2022-08-04T05:22:16.863Z,594.2
2022-08-04T05:23:19.069Z,594.2
2022-08-04T05:24:20.990Z,594.2
2022-08-04T05:25:23.473Z,594.3
2022-08-04T05:26:25.945Z,594.2
2022-08-04T05:27:27.871Z,594.9
2022-08-04T05:28:30.074Z,594.6
2022-08-04T05:30:40.294Z,594.4
2022-08-04T05:31:42.211Z,594.4
2022-08-04T05:32:44.428Z,594.8
2022-08-04T05:33:46.632Z,594.1
2022-08-04T05:34:48.850Z,594.1
2022-08-04T05:36:56.829Z,594.3
2022-08-04T05:39:04.784Z,594.1
2022-08-04T05:40:07.000Z,594.2
2022-08-04T05:41:09.479Z,594.4
2022-08-04T05:42:11.690Z,594.6
2022-08-04T05:43:13.879Z,594.4
2022-08-04T05:44:15.274Z,594.5
2022-08-04T05:45:17.746Z,594.8
2022-08-04T05:46:19.666Z,594.4
2022-08-04T05:47:24.067Z,594.5
2022-08-04T05:48:26.702Z,594.6
2022-08-04T05:49:28.903Z,594.6
2022-08-04T05:51:35.823Z,594.8
2022-08-04T05:52:37.732Z,595.1
2022-08-04T05:53:40.224Z,595.2
2022-08-04T05:54:42.141Z,595.2
2022-08-04T05:56:49.618Z,594.7
2022-08-04T05:58:57.097Z,594.7
2022-08-04T05:59:59.575Z,594.5
2022-08-04T06:01:02.161Z,594.4
2022-08-04T06:02:04.731Z,594.3
2022-08-04T06:03:06.663Z,594.4
2022-08-04T06:05:13.857Z,594.2
2022-08-04T06:06:16.340Z,594.3
2022-08-04T06:07:18.849Z,594.3
2022-08-04T06:08:21.051Z,594.2
2022-08-04T06:09:23.520Z,594.3
2022-08-04T06:11:30.984Z,594.3
2022-08-04T06:12:37.672Z,594.2
2022-08-04T06:14:44.594Z,594.3
2022-08-04T06:21:45.486Z,594.5
2022-08-04T06:22:47.659Z,594.3
2022-08-04T06:24:54.558Z,594.8
2022-08-04T06:25:57.038Z,594.1
2022-08-04T06:26:59.243Z,594.4
2022-08-04T06:28:01.447Z,594.4
2022-08-04T06:29:03.939Z,594.2
2022-08-04T06:30:06.416Z,594.2
2022-08-04T06:33:18.897Z,594.3
2022-08-04T06:34:21.395Z,594.2
2022-08-04T06:35:23.876Z,594.3
2022-08-04T06:36:26.073Z,594.3
2022-08-04T06:38:33.273Z,594.7
2022-08-04T06:40:41.941Z,594.2
2022-08-04T06:42:49.123Z,594.8
2022-08-04T06:43:51.607Z,594.6
2022-08-04T06:44:53.555Z,594.8
2022-08-04T06:45:56.112Z,594.4
2022-08-04T06:46:58.050Z,594.5
2022-08-04T06:47:59.994Z,594.8
2022-08-04T06:49:02.487Z,594.7
2022-08-04T06:52:14.441Z,594.6
2022-08-04T06:53:16.371Z,594.4
2022-08-04T06:54:18.569Z,594.5
2022-08-04T06:55:20.777Z,594.4
2022-08-04T06:56:23.252Z,594.1
2022-08-04T06:57:25.486Z,594.2
2022-08-04T06:58:27.669Z,594.3
2022-08-04T06:59:29.883Z,594.2
2022-08-04T07:00:32.136Z,594
2022-08-04T07:01:35.165Z,594.1
2022-08-04T07:02:37.396Z,594.5
2022-08-04T07:03:39.574Z,594.2
2022-08-04T07:04:42.058Z,594.2
2022-08-04T07:05:44.533Z,594.1
2022-08-04T07:06:47.005Z,594.2
2022-08-04T07:08:53.930Z,594
2022-08-04T07:09:55.857Z,594
2022-08-04T07:10:58.332Z,593.6
2022-08-04T07:12:00.510Z,593.7
2022-08-04T07:13:02.855Z,593.9
2022-08-04T07:14:05.058Z,593.8
2022-08-04T07:16:15.858Z,593.7
2022-08-04T07:17:18.350Z,593.5
2022-08-04T07:18:20.827Z,593.8
2022-08-04T07:19:23.299Z,593.6
2022-08-04T07:21:30.225Z,593.7
2022-08-04T07:22:32.155Z,593.9
2022-08-04T07:23:34.341Z,594
2022-08-04T07:24:36.558Z,594
2022-08-04T07:26:43.753Z,593.8
2022-08-04T07:28:50.401Z,593.8
2022-08-04T07:29:52.611Z,593.9
2022-08-04T07:30:55.090Z,593.9
2022-08-04T07:31:57.588Z,593.6
2022-08-04T07:33:00.259Z,593.9
2022-08-04T07:35:08.554Z,593.6
2022-08-04T07:36:16.324Z,593.9
2022-08-04T07:37:20.783Z,593.9
2022-08-04T07:40:32.813Z,593.7
2022-08-04T07:42:40.248Z,593.6
2022-08-04T07:43:42.171Z,594
2022-08-04T07:44:46.139Z,594
2022-08-04T07:45:48.808Z,593.7
2022-08-04T07:46:51.031Z,593.4
2022-08-04T07:48:58.237Z,593.8
2022-08-04T07:50:00.449Z,593.9
2022-08-04T07:52:10.066Z,593.9
2022-08-04T07:54:17.275Z,594.3
2022-08-04T07:55:19.480Z,594.2
2022-08-04T07:56:21.425Z,594.3
2022-08-04T07:59:33.901Z,594.1
2022-08-04T08:00:36.120Z,594.1
2022-08-04T08:01:38.333Z,593.9
2022-08-04T08:02:40.394Z,594.1
2022-08-04T08:03:43.368Z,594.2
2022-08-04T08:04:45.874Z,594.1
2022-08-04T08:06:52.802Z,593.8
2022-08-04T08:07:56.488Z,593.7
2022-08-04T08:08:58.120Z,593.8
2022-08-04T08:10:00.344Z,594.1
2022-08-04T08:11:02.553Z,593.8
2022-08-04T08:13:09.750Z,594
2022-08-04T08:14:11.942Z,593.5
2022-08-04T08:16:19.420Z,593.9
2022-08-04T08:17:22.989Z,593.8
2022-08-04T08:18:25.688Z,593.9
2022-08-04T08:19:28.162Z,593.9
2022-08-04T08:20:32.663Z,594.1
2022-08-04T08:21:34.610Z,594.2
2022-08-04T08:22:41.576Z,593.9
2022-08-04T08:23:44.046Z,593.9
2022-08-04T08:24:46.531Z,593.8
2022-08-04T08:25:48.733Z,593.6
2022-08-04T08:26:51.220Z,593.8
2022-08-04T08:28:58.428Z,594.1
2022-08-04T08:30:00.346Z,594.2
2022-08-04T08:33:12.836Z,594.3
2022-08-04T08:35:20.031Z,594.1
2022-08-04T08:36:21.664Z,593.8
2022-08-04T08:37:25.449Z,594.2
2022-08-04T08:38:27.651Z,594.2
2022-08-04T08:39:30.212Z,594.1
2022-08-04T08:41:37.154Z,594.2
2022-08-04T08:42:39.370Z,594.4
2022-08-04T08:44:46.585Z,594.3
2022-08-04T08:45:48.505Z,594.2
2022-08-04T08:46:51.941Z,594.3
2022-08-04T08:48:59.158Z,594.4
2022-08-04T08:50:06.167Z,594.4
2022-08-04T08:51:07.842Z,594
2022-08-04T08:52:10.333Z,594.4
2022-08-04T08:53:13.409Z,594.1
2022-08-04T08:54:15.920Z,594
2022-08-04T08:55:17.838Z,593.9
2022-08-04T08:57:26.193Z,593.9
2022-08-04T08:58:28.674Z,594
2022-08-04T08:59:30.885Z,594
2022-08-04T09:00:33.467Z,594
2022-08-04T09:01:36.433Z,594
2022-08-04T09:02:38.367Z,594.2
2022-08-04T09:03:40.607Z,594.2
2022-08-04T09:05:48.736Z,593.8
2022-08-04T09:06:50.957Z,593.9
2022-08-04T09:07:52.904Z,594.3
2022-08-04T09:08:55.580Z,594
2022-08-04T09:09:57.536Z,594.1
2022-08-04T09:10:59.458Z,594
2022-08-04T09:12:01.649Z,594.4
2022-08-04T09:13:04.162Z,594.3
2022-08-04T09:14:06.388Z,594.3
2022-08-04T09:15:08.057Z,594.2
2022-08-04T09:16:10.547Z,593.9
2022-08-04T09:17:12.186Z,594.1
2022-08-04T09:18:14.389Z,594.2
2022-08-04T09:20:21.878Z,594.4
2022-08-04T09:21:24.358Z,594.2
2022-08-04T09:22:26.270Z,594.3
2022-08-04T09:23:28.500Z,594.4
2022-08-04T09:25:35.724Z,594.3
2022-08-04T09:26:37.931Z,594.3
2022-08-04T09:27:39.944Z,594.3
2022-08-04T09:29:47.164Z,594.5
2022-08-04T09:30:49.373Z,594.4
2022-08-04T09:32:56.594Z,594.7
2022-08-04T09:33:58.794Z,594.7
2022-08-04T09:36:06.286Z,594.4
2022-08-04T09:37:08.222Z,594.1
2022-08-04T09:38:10.698Z,594.4
2022-08-04T09:39:13.391Z,594.8
2022-08-04T09:46:45.329Z,594.8
2022-08-04T09:47:47.820Z,594.7
2022-08-04T09:48:50.048Z,594.7
2022-08-04T09:49:52.237Z,595
2022-08-04T09:50:54.437Z,594.8
2022-08-04T09:53:01.115Z,594.9
2022-08-04T09:54:03.316Z,595
2022-08-04T09:55:05.554Z,594.9
2022-08-04T09:56:07.203Z,594.9
2022-08-04T09:57:09.727Z,595.1
2022-08-04T09:58:11.942Z,595.1
2022-08-04T09:59:15.898Z,594.9
2022-08-04T10:00:18.126Z,595.2
2022-08-04T10:02:25.549Z,595.3
2022-08-04T10:03:27.847Z,595.3
2022-08-04T10:04:29.839Z,595.6
2022-08-04T10:05:32.529Z,595.7
2022-08-04T10:06:34.740Z,595.6
2022-08-04T10:07:36.641Z,596
2022-08-04T10:08:38.858Z,595.3
2022-08-04T10:09:41.077Z,595.7
2022-08-04T10:10:43.269Z,595.3
2022-08-04T10:12:50.735Z,595.5
2022-08-04T10:13:53.216Z,595.5
2022-08-04T10:14:55.434Z,595.3
2022-08-04T10:15:57.911Z,595.5
2022-08-04T10:17:00.125Z,595.5
2022-08-04T10:18:02.619Z,595.7
2022-08-04T10:20:09.800Z,595.8
2022-08-04T10:23:21.988Z,595.6
2022-08-04T10:24:24.193Z,595.8
2022-08-04T10:26:31.694Z,595.7
2022-08-04T10:27:33.907Z,595.9
2022-08-04T10:28:36.412Z,596.4
2022-08-04T10:29:38.909Z,596.3
2022-08-04T10:30:41.190Z,596.1
2022-08-04T10:32:48.115Z,596.2
2022-08-04T10:33:50.933Z,596.4
2022-08-04T10:34:53.319Z,596.5
2022-08-04T10:35:55.239Z,596.8
2022-08-04T10:36:57.727Z,597.1
2022-08-04T10:39:05.325Z,596.9
2022-08-04T10:40:08.051Z,596.9
2022-08-04T10:41:10.344Z,597.2
2022-08-04T10:42:12.543Z,597.3
2022-08-04T10:44:19.738Z,596.7
2022-08-04T10:45:21.950Z,597.4
2022-08-04T10:46:24.146Z,596.8
2022-08-04T10:47:26.361Z,597.5
2022-08-04T10:49:33.557Z,597.7
2022-08-04T10:50:35.772Z,597.7
2022-08-04T10:52:42.990Z,597.9
2022-08-04T10:53:45.185Z,598.1
2022-08-04T10:54:46.850Z,598.3
2022-08-04T10:57:59.316Z,598
2022-08-04T10:59:01.513Z,597.6
2022-08-04T11:00:05.957Z,597.5
2022-08-04T11:01:08.158Z,597.7
2022-08-04T11:03:16.672Z,598
2022-08-04T11:05:24.166Z,598.8
2022-08-04T11:06:26.367Z,598.8
2022-08-04T11:07:28.568Z,599
2022-08-04T11:08:31.820Z,598.8
2022-08-04T11:09:34.019Z,598.6
2022-08-04T11:10:36.217Z,598.8
2022-08-04T11:12:43.419Z,598.7
2022-08-04T11:14:50.069Z,598.6
2022-08-04T11:15:51.987Z,598.6
2022-08-04T11:16:54.463Z,598.9
2022-08-04T11:17:58.539Z,598.5
2022-08-04T11:19:01.022Z,599.2
2022-08-04T11:21:08.220Z,598.7
2022-08-04T11:22:10.698Z,599
2022-08-04T11:23:13.188Z,598.9
2022-08-04T11:24:15.664Z,599.1
2022-08-04T11:25:18.149Z,599.5
2022-08-04T11:26:20.616Z,599.4
2022-08-04T11:27:23.906Z,599
2022-08-04T11:28:26.469Z,599.1
2022-08-04T11:29:28.370Z,598.8
2022-08-04T11:30:30.276Z,598.6
2022-08-04T11:31:32.184Z,598.9
2022-08-04T11:32:34.383Z,599.2
2022-08-04T11:33:38.102Z,599.2
2022-08-04T11:34:42.499Z,599
2022-08-04T11:35:48.904Z,598.6
2022-08-04T11:36:50.835Z,598.9
2022-08-04T11:37:53.043Z,599.1
2022-08-04T11:38:55.847Z,598.9
2022-08-04T11:39:58.378Z,598.6
2022-08-04T11:42:05.576Z,598.8
2022-08-04T11:43:07.787Z,598.8
2022-08-04T11:45:15.305Z,599.3
2022-08-04T11:46:17.827Z,599.2
2022-08-04T11:47:23.411Z,599.3
2022-08-04T11:48:25.395Z,599.2
2022-08-04T11:49:27.321Z,599.5
2022-08-04T11:50:29.524Z,599.6
2022-08-04T11:51:31.363Z,599.7
2022-08-04T11:52:33.561Z,599.8
2022-08-04T11:54:40.478Z,599.3
2022-08-04T11:56:47.747Z,599.7
2022-08-04T11:58:54.645Z,599.4
2022-08-04T12:01:02.341Z,599.9
2022-08-04T12:02:04.620Z,599.5
2022-08-04T12:03:06.851Z,599.9
2022-08-04T12:04:09.320Z,599.7
2022-08-04T12:06:16.803Z,599.8
2022-08-04T12:08:24.028Z,600
2022-08-04T12:09:26.233Z,599.9
2022-08-04T12:11:32.903Z,599.5
2022-08-04T12:12:35.384Z,600.1
2022-08-04T12:13:37.311Z,599.6
2022-08-04T12:14:39.515Z,599.9
2022-08-04T12:15:42.005Z,599.9
2022-08-04T12:16:44.199Z,600.2
2022-08-04T12:21:04.364Z,600.6
2022-08-04T12:23:13.203Z,600.6
2022-08-04T12:24:16.632Z,600.8
2022-08-04T12:25:19.135Z,600.8
2022-08-04T12:26:21.346Z,600.8
2022-08-04T12:29:36.815Z,601
2022-08-04T12:31:44.300Z,600.7
2022-08-04T12:34:56.770Z,600.4
2022-08-04T12:37:03.699Z,600.9
2022-08-04T12:38:05.901Z,600.4
2022-08-04T12:39:08.863Z,600.7
2022-08-04T12:41:16.090Z,600.3
2022-08-04T12:43:22.744Z,600.9
2022-08-04T12:45:30.307Z,601.1
2022-08-04T12:46:32.795Z,600.9
2022-08-04T12:47:34.996Z,601
2022-08-04T12:48:37.861Z,600.9
2022-08-04T12:49:40.068Z,601
2022-08-04T12:50:42.285Z,601.3
2022-08-04T12:53:54.541Z,601.6
2022-08-04T12:54:56.738Z,601.4
2022-08-04T12:57:03.955Z,601.5
2022-08-04T12:58:06.427Z,602.1
2022-08-04T13:00:13.624Z,601.4
2022-08-04T13:02:21.331Z,601.9
2022-08-04T13:03:23.822Z,601.6
2022-08-04T13:05:31.029Z,602.1
2022-08-04T13:06:33.242Z,602.3
2022-08-04T13:07:35.730Z,601.9
2022-08-04T13:08:37.929Z,601.9
2022-08-04T13:09:39.575Z,602.3
2022-08-04T13:10:42.071Z,602.5
2022-08-04T13:11:45.310Z,602.4
2022-08-04T13:12:49.491Z,602.4
2022-08-04T13:16:01.418Z,603.1
2022-08-04T13:17:04.047Z,602.5
2022-08-04T13:19:11.862Z,602.3
2022-08-04T13:20:17.237Z,602.6
2022-08-04T13:31:06.730Z,603.6
2022-08-04T13:32:08.924Z,603.1
2022-08-04T13:33:10.835Z,603.5
2022-08-04T13:35:18.036Z,603.7
2022-08-04T13:36:19.686Z,603.7
2022-08-04T13:37:24.757Z,603.9
2022-08-04T13:38:27.215Z,604
2022-08-04T13:39:29.510Z,604
2022-08-04T13:40:32.618Z,604.5
2022-08-04T13:41:35.102Z,603.9
2022-08-04T13:42:37.643Z,603.9
2022-08-04T13:44:46.475Z,604.5
2022-08-04T13:45:48.944Z,604.7
2022-08-04T13:46:53.079Z,604.7
2022-08-04T13:47:55.561Z,604.8
2022-08-04T13:51:07.480Z,604.8
2022-08-04T13:53:14.712Z,605.2
2022-08-04T13:54:17.190Z,605.2
2022-08-04T13:55:19.429Z,605.2
2022-08-04T13:56:22.760Z,605.1
2022-08-04T13:57:26.519Z,605.1
2022-08-04T13:58:28.462Z,605.1
2022-08-04T13:59:30.947Z,605.2
2022-08-04T14:00:33.461Z,605.4
2022-08-04T14:01:38.444Z,605.5
2022-08-04T14:02:40.692Z,605.7
2022-08-04T14:04:47.906Z,606.5
2022-08-04T14:06:55.392Z,605.9
2022-08-04T14:07:57.591Z,605.6
2022-08-04T14:08:59.798Z,605.7
2022-08-04T14:11:06.997Z,606.1
2022-08-04T14:13:15.620Z,606.1
2022-08-04T14:14:17.819Z,606.5
2022-08-04T14:15:20.308Z,606.2
2022-08-04T14:16:22.527Z,606.2
2022-08-04T14:18:31.716Z,606.3
2022-08-04T14:21:44.415Z,606.1
2022-08-04T14:22:46.606Z,606.3
2022-08-04T14:23:50.132Z,606.5
2022-08-04T14:24:52.060Z,606.3
2022-08-04T14:25:53.998Z,606.5
2022-08-04T14:26:55.643Z,606.6
2022-08-04T14:27:57.866Z,606.2
2022-08-04T14:30:05.343Z,606.4
2022-08-04T14:31:07.830Z,606.3
2022-08-04T14:34:52.732Z,606.1
2022-08-04T14:38:06.282Z,606.4
2022-08-04T14:39:08.868Z,606.4
2022-08-04T14:41:16.084Z,606.2
2022-08-04T14:42:18.286Z,606.2
2022-08-04T14:43:20.487Z,606.4
2022-08-04T14:44:24.762Z,606.1
2022-08-04T14:45:26.974Z,606.6
2022-08-04T14:47:34.152Z,606.7
2022-08-04T14:50:47.560Z,607
2022-08-04T14:51:49.758Z,606.9
2022-08-04T14:52:52.245Z,606.5
2022-08-04T14:53:54.715Z,606.6
2022-08-04T14:54:57.192Z,606.9
2022-08-04T14:55:59.390Z,606.9
2022-08-04T14:57:01.517Z,607.4
2022-08-04T14:59:08.995Z,607.7
2022-08-04T15:01:20.478Z,607.1
2022-08-04T15:03:29.132Z,607.2
2022-08-04T15:04:31.479Z,607
2022-08-04T15:06:38.741Z,608.1
2022-08-04T15:07:41.237Z,607.5
2022-08-04T15:09:48.438Z,607
2022-08-04T15:10:50.916Z,607.2
2022-08-04T15:11:53.121Z,607.4
2022-08-04T15:12:56.571Z,607.7
2022-08-04T15:13:58.769Z,607.6
2022-08-04T15:18:15.982Z,607.5
2022-08-04T15:19:18.188Z,607.8
2022-08-04T15:20:20.668Z,608.1
2022-08-04T15:21:22.869Z,608.2
2022-08-04T15:22:25.398Z,608.7
2022-08-04T15:24:32.890Z,608.5
2022-08-04T15:26:40.875Z,609.1
2022-08-04T15:27:43.366Z,608.5
2022-08-04T15:28:45.575Z,608.7
2022-08-04T15:33:02.787Z,609.3
2022-08-04T15:34:04.997Z,609.1
2022-08-04T15:35:07.484Z,609.4
2022-08-04T15:36:09.669Z,609.4
2022-08-04T15:37:11.590Z,609.1
2022-08-04T15:38:14.087Z,609.4
2022-08-04T15:39:17.553Z,609.2
2022-08-04T15:41:26.087Z,609.3
2022-08-04T15:42:29.634Z,609.5
2022-08-04T15:43:31.838Z,610.1
2022-08-04T15:44:34.312Z,610.2
2022-08-04T15:48:51.794Z,610.5
2022-08-04T15:49:53.719Z,610.4
2022-08-04T15:50:55.925Z,610.4
2022-08-04T15:52:01.629Z,610.6
2022-08-04T15:57:23.815Z,611
2022-08-04T15:58:25.995Z,611
2022-08-04T15:59:28.229Z,611.1
2022-08-04T16:00:32.043Z,611.2
2022-08-04T16:01:39.458Z,611
2022-08-04T16:02:41.652Z,610.9
2022-08-04T16:04:49.179Z,611.3
2022-08-04T16:05:51.376Z,611.3
2022-08-04T16:06:53.587Z,611.6
2022-08-04T16:07:55.782Z,611.4
2022-08-04T16:09:00.272Z,611.6
2022-08-04T16:10:02.466Z,611.6
2022-08-04T16:11:04.694Z,611.6
2022-08-04T16:13:12.699Z,611.5
2022-08-04T16:14:14.634Z,611.5
2022-08-04T16:15:17.116Z,612
2022-08-04T16:16:19.606Z,612
2022-08-04T16:17:21.884Z,611.9
2022-08-04T16:20:34.076Z,611.5
2022-08-04T16:21:35.991Z,611.6
2022-08-04T16:22:37.920Z,611.7
2022-08-04T16:24:45.119Z,611.7
2022-08-04T16:25:47.793Z,612
2022-08-04T16:27:54.710Z,611.9
2022-08-04T16:28:56.911Z,611.9
2022-08-04T16:29:59.125Z,611.8
2022-08-04T16:31:01.598Z,611.8
2022-08-04T16:32:03.799Z,611.8
2022-08-04T16:33:06.547Z,612.1
2022-08-04T16:35:14.201Z,612
2022-08-04T16:36:19.409Z,612.1
2022-08-04T16:37:21.621Z,612.2
2022-08-04T16:38:23.793Z,612
2022-08-04T16:39:26.668Z,611.9
2022-08-04T16:41:33.927Z,612
2022-08-04T16:42:36.404Z,611.6
2022-08-04T16:43:38.883Z,611.8
2022-08-04T16:45:45.799Z,611.9
2022-08-04T16:47:52.974Z,612.1
2022-08-04T16:48:55.451Z,612
2022-08-04T16:49:58.308Z,611.9
2022-08-04T16:52:05.931Z,611.9
2022-08-04T16:54:14.111Z,612.2
2022-08-04T16:55:16.033Z,612.3
2022-08-04T16:56:19.967Z,612.6
2022-08-04T16:57:21.607Z,612.5
2022-08-04T16:58:23.793Z,612.5
2022-08-04T16:59:26.021Z,612.8
2022-08-04T17:00:28.500Z,612.6
2022-08-04T17:02:36.498Z,612.6
2022-08-04T17:03:38.739Z,612.5
2022-08-04T17:04:40.672Z,612.9
2022-08-04T17:05:42.893Z,612.8
2022-08-04T17:06:45.867Z,612.5
2022-08-04T17:07:48.055Z,612.6
2022-08-04T17:08:50.270Z,613.1
2022-08-04T17:09:52.497Z,612.8
2022-08-04T17:10:54.713Z,613.3
2022-08-04T17:11:56.904Z,613.2
2022-08-04T17:15:10.321Z,613
2022-08-04T17:17:18.669Z,613.6
2022-08-04T17:18:20.858Z,613.5
2022-08-04T17:21:33.980Z,613.5
2022-08-04T17:22:36.161Z,613.1
2022-08-04T17:24:43.724Z,613.5
2022-08-04T17:30:10.761Z,613.4
2022-08-04T17:31:13.059Z,613.6
2022-08-04T17:32:15.811Z,613.9
2022-08-04T17:33:18.440Z,613.8
2022-08-04T17:39:18.969Z,613.8
2022-08-04T17:42:31.216Z,613.8
2022-08-04T17:44:38.406Z,613.8
2022-08-04T17:48:30.427Z,614
2022-08-04T18:01:32.002Z,613.7
2022-08-04T18:03:39.749Z,613.6
2022-08-04T18:12:29.330Z,613.6
2022-08-04T18:14:36.526Z,613.4
2022-08-04T18:16:45.535Z,613.5
2022-08-04T18:18:52.999Z,613.1